• Join FlightAware (Why Join?)
  • Login
  • US Flag 
06:11AM EDT


 

Airport Tracker/Info


-or-


 

Live Flight TrackerFlight Track Log ✈ UAL33 ✈ 03-Oct-2013 ✈ RJAA / NRT - KLAX

Flight Track Log - Related Links

Times and Time Zones

All times are in EDT time to prevent confusion due to time zone crossing. See the UAL33 flight status page for this flight to view local times or setup timezone preferences in your user account.

Time Position Orientation Groundspeed Altitude Reporting Facility
EDT Latitude Longitude Course Direction KTS MPH feet Rate Location/Type
04:54AM 35.7780 140.3650 327° Northwest 174 200 1,300  Level FlightAware
04:54AM 35.7910 140.3550 328° Northwest 174 200 2,100 2,220 Climbing FlightAware
04:55AM 35.8030 140.3470 332° Northwest 176 203 2,600 1,980 Climbing FlightAware
04:55AM 35.8170 140.3370 330° Northwest 177 204 3,300 1,680 Climbing FlightAware
04:55AM 35.8310 140.3280 332° Northwest 195 224 3,700 960 Climbing FlightAware
04:55AM 35.8460 140.3170 329° Northwest 224 258 3,900 960 Climbing FlightAware
04:56AM 35.8650 140.3020 327° Northwest 251 289 4,300 1,620 Climbing FlightAware
04:56AM 35.8860 140.2900 335° Northwest 259 298 5,000 2,100 Climbing FlightAware
04:56AM 35.8950 140.2870 345° North 263 303 5,300 1,980 Climbing FlightAware
04:56AM 35.9010 140.2870 360° North 268 308 5,400 1,200 Climbing FlightAware
04:57AM 35.9190 140.2920 13° North 277 319 5,800 2,040 Climbing FlightAware
04:57AM 35.9340 140.3070 39° Northeast 280 322 6,500 3,000 Climbing FlightAware
04:57AM 35.9380 140.3140 55° Northeast 280 322 6,700 2,700 Climbing FlightAware
04:57AM 35.9400 140.3220 73° East 283 326 7,000 2,580 Climbing FlightAware
04:57AM 35.9430 140.3390 78° East 284 327 7,400 2,280 Climbing FlightAware
04:58AM 35.9340 140.3800 105° East 289 333 8,400 2,280 Climbing FlightAware
04:58AM 35.9210 140.4180 113° Southeast 294 338 9,400 2,400 Climbing FlightAware
04:58AM 35.9060 140.4450 124° Southeast 292 336 10,200 1,920 Climbing FlightAware
04:59AM 35.8770 140.4890 129° Southeast 322 371 11,000 1,380 Climbing FlightAware
04:59AM 35.8500 140.5320 128° Southeast 349 402 11,700 2,040 Climbing FlightAware
05:00AM 35.8090 140.5990 127° Southeast 368 423 13,400 2,580 Climbing FlightAware
05:01AM 35.7730 140.6560 128° Southeast 371 427 14,800 1,260 Climbing FlightAware
05:01AM 35.7300 140.7240 128° Southeast 375 432 15,000 360 Climbing FlightAware
05:02AM 35.6950 140.7780 129° Southeast 377 434 15,300 1,500 Climbing FlightAware
05:02AM 35.6600 140.8350 127° Southeast 383 441 16,600 2,280 Climbing FlightAware
05:03AM 35.6200 140.8980 128° Southeast 394 453 17,900 2,100 Climbing FlightAware
05:04AM 35.5770 140.9650 128° Southeast 397 457 19,200 1,920 Climbing FlightAware
05:04AM 35.5380 141.0260 128° Southeast 408 470 20,200 1,680 Climbing FlightAware
05:05AM 35.5000 141.0900 126° Southeast 427 491 21,100 1,740 Climbing FlightAware
05:05AM 35.4690 141.1750 114° Southeast 443 510 22,300 1,800 Climbing FlightAware
05:06AM 35.4450 141.2510 111° Southeast 448 516 23,200 1,680 Climbing FlightAware
05:06AM 35.4260 141.3370 105° East 468 539 24,200 1,680 Climbing FlightAware
05:07AM 35.4410 141.4220 78° East 488 562 25,100 1,500 Climbing FlightAware
05:07AM 35.4610 141.4590 56° Northeast 493 567 25,500 1,440 Climbing FlightAware
05:08AM 35.5170 141.5520 53° Northeast 496 571 26,500 1,440 Climbing FlightAware
05:09AM 35.5630 141.6310 54° Northeast 503 579 27,300 1,380 Climbing FlightAware
05:09AM 35.6130 141.7140 53° Northeast 510 587 28,100 1,380 Climbing FlightAware
05:10AM 35.6580 141.7900 54° Northeast 520 598 28,900 1,440 Climbing FlightAware
05:10AM 35.7050 141.8720 55° Northeast 523 602 29,700 840 Climbing FlightAware
05:11AM 35.7580 141.9610 54° Northeast 526 605 30,000 1,380 Climbing FlightAware
05:11AM 35.8110 142.0520 54° Northeast 531 611 31,400 1,740 Climbing FlightAware
05:12AM 35.8610 142.1390 55° Northeast 533 613 32,000 1,020 Climbing FlightAware
05:13AM 35.9090 142.2200 54° Northeast 538 619 32,600 1,020 Climbing FlightAware
05:13AM 35.9630 142.3150 55° Northeast 550 633 33,200 900 Climbing FlightAware
05:14AM 36.0230 142.4180 54° Northeast 555 639 33,800 900 Climbing FlightAware
05:15AM 36.0820 142.5210 55° Northeast 560 644 34,400 1,200 Climbing FlightAware
05:15AM 36.1270 142.5980 54° Northeast 555 639 35,200 1,320 Climbing FlightAware
05:16AM 36.1860 142.7020 55° Northeast 548 631 36,000 1,200 Climbing FlightAware
05:16AM 36.2310 142.7800 54° Northeast 546 628 36,600 900 Climbing FlightAware
05:17AM 36.2820 142.8710 55° Northeast 545 627 37,000 300 Climbing FlightAware
05:17AM 36.3380 142.9690 55° Northeast 546 628 37,000  Level FlightAware
05:18AM 36.3910 143.0610 54° Northeast 548 631 37,000  Level FlightAware
05:19AM 36.4360 143.1400 55° Northeast 548 631 37,000  Level FlightAware
05:19AM 36.4870 143.2310 55° Northeast 549 632 37,000  Level FlightAware
05:20AM 36.5440 143.3330 55° Northeast 549 632 37,000  Level FlightAware
05:20AM 36.5870 143.4090 55° Northeast 548 631 37,000  Level FlightAware
05:21AM 36.6640 143.5460 55° Northeast 549 632 37,000  Level FlightAware
05:22AM 36.7220 143.6510 55° Northeast 550 633 37,000  Level FlightAware
05:23AM 36.7870 143.7670 55° Northeast 551 634 37,000  Level FlightAware
05:23AM 36.8370 143.8570 55° Northeast 550 633 37,000  Level FlightAware
05:24AM 36.8860 143.9460 55° Northeast 548 631 37,000  Level FlightAware
05:24AM 36.9400 144.0440 55° Northeast 547 629 37,000  Level FlightAware
05:25AM 36.9890 144.1340 56° Northeast 550 633 37,000  Level FlightAware
05:25AM 37.0240 144.2200 63° Northeast 546 628 37,000  Level FlightAware
05:26AM 37.0350 144.2640 73° East 543 625 37,000  Level FlightAware
05:26AM 37.0470 144.3540 80° East 540 621 37,000  Level FlightAware
05:27AM 37.0610 144.4730 82° East 538 619 37,000  Level FlightAware
05:27AM 37.0760 144.5990 81° East 537 618 37,000  Level FlightAware
05:28AM 37.0890 144.7040 81° East 537 618 37,000  Level FlightAware
05:29AM 37.1010 144.7980 81° East 537 618 37,000  Level FlightAware
05:29AM 37.1160 144.9410 82° East 535 616 37,000  Level FlightAware
05:30AM 37.1430 145.0980 78° East 538 619 37,000  Level FlightAware
05:30AM 37.1710 145.1400 50° Northeast 542 624 37,000  Level FlightAware
05:31AM 37.2090 145.2330 63° Northeast 542 624 37,000  Level FlightAware
05:32AM 37.2440 145.3190 63° Northeast 542 624 37,000  Level FlightAware
05:32AM 37.2790 145.4050 63° Northeast 542 624 37,000  Level FlightAware
05:33AM 37.3160 145.4960 63° Northeast 542 624 37,000  Level FlightAware
05:36AM 37.5005 145.8830 59° Northeast  Level Estimated
05:37AM 37.5716 146.0333 59° Northeast  Level Estimated
05:38AM 37.6425 146.1839 59° Northeast  Level Estimated
05:39AM 37.7132 146.3348 59° Northeast  Level Estimated
05:40AM 37.7837 146.4860 59° Northeast  Level Estimated
05:41AM 37.8541 146.6375 60° Northeast  Level Estimated
05:42AM 37.9242 146.7892 60° Northeast  Level Estimated
05:43AM 37.9941 146.9413 60° Northeast  Level Estimated
05:44AM 38.0639 147.0936 60° Northeast  Level Estimated
05:45AM 38.1334 147.2462 60° Northeast  Level Estimated
05:46AM 38.2027 147.3992 60° Northeast  Level Estimated
05:47AM 38.2719 147.5524 60° Northeast  Level Estimated
05:48AM 38.3408 147.7059 60° Northeast  Level Estimated
05:49AM 38.4096 147.8597 60° Northeast  Level Estimated
05:50AM 38.4781 148.0138 60° Northeast  Level Estimated
05:51AM 38.5464 148.1681 60° Northeast  Level Estimated
05:52AM 38.6146 148.3228 61° Northeast  Level Estimated
05:53AM 38.6825 148.4778 61° Northeast  Level Estimated
05:54AM 38.7502 148.6330 61° Northeast  Level Estimated
05:55AM 38.8178 148.7886 61° Northeast  Level Estimated
05:56AM 38.8851 148.9444 61° Northeast  Level Estimated
05:57AM 38.9522 149.1006 61° Northeast  Level Estimated
05:58AM 39.0191 149.2570 61° Northeast  Level Estimated
05:59AM 39.0858 149.4138 61° Northeast  Level Estimated
06:00AM 39.1522 149.5708 61° Northeast  Level Estimated
06:01AM 39.2185 149.7281 61° Northeast  Level Estimated
06:02AM 39.2846 149.8858 62° Northeast  Level Estimated
06:03AM 39.3504 150.0437 62° Northeast  Level Estimated
06:04AM 39.4160 150.2019 62° Northeast  Level Estimated
06:05AM 39.4815 150.3604 62° Northeast  Level Estimated
06:06AM 39.5467 150.5192 62° Northeast  Level Estimated
06:07AM 39.6116 150.6783 62° Northeast  Level Estimated
06:08AM 39.6764 150.8378 62° Northeast  Level Estimated
06:09AM 39.7410 150.9975 62° Northeast  Level Estimated
06:10AM 39.8053 151.1575 62° Northeast  Level Estimated
06:11AM 39.8694 151.3178 62° Northeast  Level Estimated
06:12AM 39.9333 151.4784 63° Northeast  Level Estimated
06:13AM 39.9969 151.6393 63° Northeast  Level Estimated
06:14AM 40.0604 151.8005 63° Northeast  Level Estimated
06:15AM 40.1236 151.9620 63° Northeast  Level Estimated
06:16AM 40.1866 152.1238 63° Northeast  Level Estimated
06:17AM 40.2494 152.2859 63° Northeast  Level Estimated
06:18AM 40.3119 152.4483 63° Northeast  Level Estimated
06:19AM 40.3742 152.6111 63° Northeast  Level Estimated
06:20AM 40.4363 152.7741 63° Northeast  Level Estimated
06:21AM 40.4981 152.9374 63° Northeast  Level Estimated
06:22AM 40.5598 153.1010 64° Northeast  Level Estimated
06:23AM 40.6212 153.2649 64° Northeast  Level Estimated
06:24AM 40.6823 153.4291 64° Northeast  Level Estimated
06:25AM 40.7432 153.5936 64° Northeast  Level Estimated
06:26AM 40.8039 153.7584 64° Northeast  Level Estimated
06:27AM 40.8644 153.9236 64° Northeast  Level Estimated
06:28AM 40.9246 154.0890 64° Northeast  Level Estimated
06:29AM 40.9846 154.2547 64° Northeast  Level Estimated
06:30AM 41.0443 154.4207 64° Northeast  Level Estimated
06:31AM 41.1039 154.5870 65° Northeast  Level Estimated
06:32AM 41.1631 154.7537 65° Northeast  Level Estimated
06:33AM 41.2222 154.9206 65° Northeast  Level Estimated
06:34AM 41.2809 155.0878 65° Northeast  Level Estimated
06:35AM 41.3395 155.2553 65° Northeast  Level Estimated
06:36AM 41.3978 155.4232 65° Northeast  Level Estimated
06:37AM 41.4559 155.5913 65° Northeast  Level Estimated
06:38AM 41.5137 155.7597 65° Northeast  Level Estimated
06:39AM 41.5712 155.9285 65° Northeast  Level Estimated
06:40AM 41.6286 156.0975 66° East  Level Estimated
06:41AM 41.6856 156.2668 66° East  Level Estimated
06:42AM 41.7425 156.4364 66° East  Level Estimated
06:43AM 41.7990 156.6064 66° East  Level Estimated
06:44AM 41.8553 156.7766 66° East  Level Estimated
06:45AM 41.9114 156.9471 66° East  Level Estimated
06:46AM 41.9672 157.1180 66° East  Level Estimated
06:47AM 42.0228 157.2891 66° East  Level Estimated
06:48AM 42.0781 157.4605 66° East  Level Estimated
06:49AM 42.1331 157.6322 67° East  Level Estimated
06:50AM 42.1880 157.8042 67° East  Level Estimated
06:51AM 42.2425 157.9766 67° East  Level Estimated
06:52AM 42.2968 158.1492 67° East  Level Estimated
06:53AM 42.3508 158.3221 67° East  Level Estimated
06:54AM 42.4045 158.4953 67° East  Level Estimated
06:55AM 42.4580 158.6685 67° East  Level Estimated
06:56AM 42.5111 158.8420 67° East  Level Estimated
06:57AM 42.5640 159.0158 68° East  Level Estimated
06:58AM 42.6166 159.1899 68° East  Level Estimated
06:59AM 42.6690 159.3643 68° East  Level Estimated
07:00AM 42.7211 159.5390 68° East  Level Estimated
07:01AM 42.7729 159.7139 68° East  Level Estimated
07:02AM 42.8245 159.8892 68° East  Level Estimated
07:03AM 42.8757 160.0647 68° East  Level Estimated
07:04AM 42.9268 160.2406 68° East  Level Estimated
07:05AM 42.9775 160.4167 68° East  Level Estimated
07:06AM 43.0280 160.5932 69° East  Level Estimated
07:07AM 43.0782 160.7699 69° East  Level Estimated
07:08AM 43.1281 160.9469 69° East  Level Estimated
07:09AM 43.1778 161.1242 69° East  Level Estimated
07:10AM 43.2272 161.3017 69° East  Level Estimated
07:11AM 43.2763 161.4796 69° East  Level Estimated
07:12AM 43.3252 161.6578 69° East  Level Estimated
07:13AM 43.3737 161.8362 69° East  Level Estimated
07:14AM 43.4220 162.0149 70° East  Level Estimated
07:15AM 43.4700 162.1940 70° East  Level Estimated
07:16AM 43.5177 162.3732 70° East  Level Estimated
07:17AM 43.5652 162.5528 70° East  Level Estimated
07:18AM 43.6124 162.7327 70° East  Level Estimated
07:18AM 44.9833 162.8500 65° Northeast 512 589 37,000  Level Oakland Oceanic (ODAPS)
07:19AM 43.6592 162.9128 70° East  Level Estimated
07:20AM 43.7058 163.0932 70° East  Level Estimated
07:21AM 43.7522 163.2739 70° East  Level Estimated
07:22AM 43.7982 163.4549 71° East  Level Estimated
07:23AM 43.8439 163.6362 71° East  Level Estimated
07:24AM 43.8894 163.8177 71° East  Level Estimated
07:25AM 45.5008 164.4960 67° East 512 589 37,000  Level FlightAware Transoceanic
07:26AM 45.5568 164.6807 67° East 512 589 37,000  Level FlightAware Transoceanic
07:27AM 45.6125 164.8658 67° East 512 589 37,000  Level FlightAware Transoceanic
07:28AM 45.6679 165.0513 67° East 512 589 37,000  Level FlightAware Transoceanic
07:29AM 45.7231 165.2371 67° East 512 589 37,000  Level FlightAware Transoceanic
07:30AM 45.7779 165.4233 67° East 512 589 37,000  Level FlightAware Transoceanic
07:31AM 45.8324 165.6099 67° East 512 589 37,000 1,740 Level FlightAware Transoceanic
07:31AM 45.7833 165.4167 67° East 506 582 39,000  Climbing Oakland Oceanic (ODAPS)
07:32AM 45.8866 165.7968 67° East 512 589 37,000 -1,080 Descending FlightAware Transoceanic
07:33AM 45.9405 165.9841 68° East 512 589 37,000  Level FlightAware Transoceanic
07:34AM 45.9941 166.1718 68° East 512 589 37,000  Level FlightAware Transoceanic
07:35AM 46.0474 166.3598 68° East 512 589 37,000  Level FlightAware Transoceanic
07:36AM 46.1004 166.5482 68° East 512 589 37,000 960 Level FlightAware Transoceanic
07:37AM 46.1570 166.7323 68° East 506 582 39,000 960 Climbing FlightAware Transoceanic
07:38AM 46.2091 166.9216 68° East 506 582 39,000  Level FlightAware Transoceanic
07:39AM 46.2610 167.1114 69° East 506 582 39,000  Level FlightAware Transoceanic
07:40AM 46.3125 167.3015 69° East 506 582 39,000  Level FlightAware Transoceanic
07:41AM 46.3637 167.4920 69° East 506 582 39,000  Level FlightAware Transoceanic
07:42AM 46.4146 167.6828 69° East 506 582 39,000  Level FlightAware Transoceanic
07:43AM 46.4651 167.8739 69° East 506 582 39,000  Level FlightAware Transoceanic
07:44AM 46.5154 168.0655 69° East 506 582 39,000  Level FlightAware Transoceanic
07:44AM 46.5000 168.0167 69° East 496 571 39,000  Level Oakland Oceanic (ODAPS)
07:45AM 46.5653 168.2574 69° East 506 582 39,000  Level FlightAware Transoceanic
07:46AM 46.6149 168.4496 69° East 506 582 39,000  Level FlightAware Transoceanic
07:47AM 46.6642 168.6422 70° East 506 582 39,000  Level FlightAware Transoceanic
07:48AM 46.7131 168.8351 70° East 506 582 39,000  Level FlightAware Transoceanic
07:49AM 46.7618 169.0284 70° East 506 582 39,000  Level FlightAware Transoceanic
07:50AM 46.7770 169.0939 70° East 496 571 39,000  Level FlightAware Transoceanic
07:51AM 46.8222 169.2745 70° East 496 571 39,000  Level FlightAware Transoceanic
07:52AM 46.8670 169.4554 70° East 496 571 39,000  Level FlightAware Transoceanic
07:53AM 46.9117 169.6367 70° East 496 571 39,000  Level FlightAware Transoceanic
07:54AM 46.9560 169.8182 70° East 496 571 39,000  Level FlightAware Transoceanic
07:55AM 47.0000 170.0000 78° East 496 571 39,000  Level FlightAware Transoceanic
07:55AM 47.0333 170.2000 78° East 472 543 39,000  Level Oakland Oceanic (ODAPS)
07:56AM 47.0273 170.1883 78° East 496 571 39,000  Level FlightAware Transoceanic
07:57AM 47.0544 170.3767 78° East 496 571 39,000  Level FlightAware Transoceanic
07:58AM 47.0811 170.5654 78° East 496 571 39,000  Level FlightAware Transoceanic
07:58AM 47.0833 170.6333 78° East 496 571 39,000  Level Oakland Oceanic (ODAPS)
07:59AM 47.1075 170.7542 78° East 496 571 39,000  Level FlightAware Transoceanic
08:00AM 47.1336 170.9432 79° East 496 571 39,000  Level FlightAware Transoceanic
08:01AM 47.1594 171.1324 79° East 496 571 39,000  Level FlightAware Transoceanic
08:02AM 47.1900 171.3323 79° East 472 543 39,000  Level FlightAware Transoceanic
08:03AM 47.2150 171.5217 79° East 472 543 39,000  Level FlightAware Transoceanic
08:04AM 47.2362 171.7610 79° East 496 571 39,000  Level FlightAware Transoceanic
08:05AM 47.2606 171.9495 79° East 496 571 39,000  Level FlightAware Transoceanic
08:06AM 47.2847 172.1383 79° East 496 571 39,000  Level FlightAware Transoceanic
08:07AM 47.3085 172.3272 80° East 496 571 39,000  Level FlightAware Transoceanic
08:08AM 47.3320 172.5163 80° East 496 571 39,000  Level FlightAware Transoceanic
08:09AM 47.3551 172.7055 80° East 496 571 39,000  Level FlightAware Transoceanic
08:10AM 47.3780 172.8949 80° East 496 571 39,000  Level FlightAware Transoceanic
08:11AM 47.4005 173.0845 80° East 496 571 39,000  Level FlightAware Transoceanic
08:11AM 47.4333 173.3500 80° East 475 547 39,000  Level Oakland Oceanic (ODAPS)
08:12AM 47.4227 173.2742 80° East 496 571 39,000  Level FlightAware Transoceanic
08:13AM 47.4446 173.4641 80° East 496 571 39,000  Level FlightAware Transoceanic
08:14AM 47.4662 173.6542 81° East 496 571 39,000  Level FlightAware Transoceanic
08:15AM 47.4875 173.8444 81° East 496 571 39,000  Level FlightAware Transoceanic
08:16AM 47.5085 174.0347 81° East 496 571 39,000  Level FlightAware Transoceanic
08:17AM 47.5291 174.2252 81° East 496 571 39,000  Level FlightAware Transoceanic
08:18AM 47.5576 174.4790 81° East 475 547 39,000  Level FlightAware Transoceanic
08:19AM 47.5773 174.6677 81° East 475 547 39,000  Level FlightAware Transoceanic
08:20AM 47.5966 174.8565 81° East 475 547 39,000  Level FlightAware Transoceanic
08:21AM 47.6156 175.0455 82° East 475 547 39,000  Level FlightAware Transoceanic
08:22AM 47.6343 175.2346 82° East 475 547 39,000  Level FlightAware Transoceanic
08:23AM 47.6527 175.4238 82° East 475 547 39,000  Level FlightAware Transoceanic
08:24AM 47.6708 175.6131 82° East 475 547 39,000  Level FlightAware Transoceanic
08:25AM 47.6886 175.8026 82° East 475 547 39,000  Level FlightAware Transoceanic
08:25AM 47.7000 175.9000 82° East 456 525 39,000  Level Oakland Oceanic (ODAPS)
08:26AM 47.7061 175.9923 82° East 475 547 39,000  Level FlightAware Transoceanic
08:27AM 47.7232 176.1820 82° East 475 547 39,000  Level FlightAware Transoceanic
08:28AM 47.7400 176.3719 83° East 475 547 39,000  Level FlightAware Transoceanic
08:29AM 47.7566 176.5619 83° East 475 547 39,000  Level FlightAware Transoceanic
08:30AM 47.7728 176.7520 83° East 475 547 39,000  Level FlightAware Transoceanic
08:31AM 47.7887 176.9422 83° East 475 547 39,000  Level FlightAware Transoceanic
08:32AM 47.8006 177.0664 83° East 456 525 39,000  Level FlightAware Transoceanic
08:33AM 47.8162 177.2613 83° East 456 525 39,000  Level FlightAware Transoceanic
08:34AM 47.8315 177.4562 83° East 456 525 39,000  Level FlightAware Transoceanic
08:35AM 47.8464 177.6513 84° East 456 525 39,000  Level FlightAware Transoceanic
08:36AM 47.8611 177.8464 84° East 456 525 39,000  Level FlightAware Transoceanic
08:37AM 47.8754 178.0417 84° East 456 525 39,000  Level FlightAware Transoceanic
08:38AM 47.8893 178.2371 84° East 456 525 39,000  Level FlightAware Transoceanic
08:39AM 47.9029 178.4326 84° East 456 525 39,000  Level FlightAware Transoceanic
08:40AM 47.9162 178.6282 84° East 456 525 39,000  Level FlightAware Transoceanic
08:40AM 47.9000 178.4833 84° East 453 521 39,000  Level Oakland Oceanic (ODAPS)
08:41AM 47.9292 178.8239 84° East 456 525 39,000  Level FlightAware Transoceanic
08:42AM 47.9418 179.0197 85° East 456 525 39,000  Level FlightAware Transoceanic
08:43AM 47.9541 179.2156 85° East 456 525 39,000  Level FlightAware Transoceanic
08:44AM 47.9661 179.4115 85° East 456 525 39,000  Level FlightAware Transoceanic
08:45AM 47.9777 179.6076 85° East 456 525 39,000  Level FlightAware Transoceanic
08:46AM 47.9886 179.8101 85° East 453 521 39,000  Level FlightAware Transoceanic
08:47AM 48.0000 -180.0000 95° East 453 521 39,000  Level FlightAware Transoceanic
08:47AM 48.0000 180.0000 95° East 486 559 39,000  Level Oakland Oceanic (ODAPS)
08:48AM 47.9886 -179.7968 95° East 453 521 39,000  Level FlightAware Transoceanic
08:49AM 47.9769 -179.5936 95° East 453 521 39,000  Level FlightAware Transoceanic
08:50AM 47.9648 -179.3905 95° East 453 521 39,000  Level FlightAware Transoceanic
08:51AM 47.9523 -179.1876 95° East 453 521 39,000  Level FlightAware Transoceanic
08:52AM 47.9395 -178.9847 95° East 453 521 39,000  Level FlightAware Transoceanic
08:53AM 47.9263 -178.7819 96° East 453 521 39,000  Level FlightAware Transoceanic
08:53AM 47.9333 -178.9000 96° East 486 559 39,000  Level Oakland Oceanic (ODAPS)
08:54AM 47.9263 -178.7819 96° East 486 559 39,000  Level FlightAware Transoceanic
08:55AM 47.9128 -178.5793 96° East 486 559 39,000  Level FlightAware Transoceanic
08:56AM 47.8989 -178.3767 96° East 486 559 39,000  Level FlightAware Transoceanic
08:57AM 47.8847 -178.1743 96° East 486 559 39,000  Level FlightAware Transoceanic
08:58AM 47.8701 -177.9719 96° East 486 559 39,000  Level FlightAware Transoceanic
08:59AM 47.8510 -177.7227 96° East 486 559 39,000  Level FlightAware Transoceanic
09:00AM 47.8361 -177.5269 97° East 486 559 39,000  Level FlightAware Transoceanic
09:01AM 47.8209 -177.3311 97° East 486 559 39,000  Level FlightAware Transoceanic
09:02AM 47.8053 -177.1355 97° East 486 559 39,000  Level FlightAware Transoceanic
09:03AM 47.7894 -176.9400 97° East 486 559 39,000  Level FlightAware Transoceanic
09:04AM 47.7732 -176.7446 97° East 486 559 39,000  Level FlightAware Transoceanic
09:05AM 47.7566 -176.5494 97° East 486 559 39,000  Level FlightAware Transoceanic
09:06AM 47.7398 -176.3543 97° East 486 559 39,000  Level FlightAware Transoceanic
09:07AM 47.7225 -176.1593 98° East 486 559 39,000  Level FlightAware Transoceanic
09:07AM 47.7333 -176.2167 98° East 496 571 39,000  Level Oakland Oceanic (ODAPS)
09:07AM 47.7167 -176.1333 98° East 498 573 39,000  Level Oakland Oceanic (ODAPS)
09:08AM 47.7050 -175.9644 98° East 486 559 39,000  Level FlightAware Transoceanic
09:09AM 47.6871 -175.7697 98° East 486 559 39,000  Level FlightAware Transoceanic
09:10AM 47.6689 -175.5751 98° East 486 559 39,000  Level FlightAware Transoceanic
09:11AM 47.6504 -175.3806 98° East 486 559 39,000  Level FlightAware Transoceanic
09:12AM 47.6315 -175.1863 98° East 486 559 39,000  Level FlightAware Transoceanic
09:13AM 47.6178 -175.0005 98° East 496 571 39,000  Level FlightAware Transoceanic
09:14AM 47.5997 -174.8939 98° East 498 573 39,000  Level FlightAware Transoceanic
09:15AM 47.5788 -174.6879 99° East 498 573 39,000  Level FlightAware Transoceanic
09:16AM 47.5577 -174.4820 99° East 498 573 39,000  Level FlightAware Transoceanic
09:17AM 47.5362 -174.2763 99° East 498 573 39,000  Level FlightAware Transoceanic
09:18AM 47.5143 -174.0708 99° East 498 573 39,000  Level FlightAware Transoceanic
09:19AM 47.4920 -173.8654 99° East 498 573 39,000  Level FlightAware Transoceanic
09:20AM 47.4693 -173.6603 99° East 498 573 39,000  Level FlightAware Transoceanic
09:21AM 47.4463 -173.4553 99° East 498 573 39,000  Level FlightAware Transoceanic
09:21AM 47.4500 -173.4000 100° East 508 585 39,000  Level Oakland Oceanic (ODAPS)
09:22AM 47.4230 -173.2504 100° East 498 573 39,000  Level FlightAware Transoceanic
09:23AM 47.3992 -173.0458 100° East 498 573 39,000  Level FlightAware Transoceanic
09:24AM 47.3751 -172.8414 100° East 498 573 39,000  Level FlightAware Transoceanic
09:25AM 47.3507 -172.6371 100° East 498 573 39,000  Level FlightAware Transoceanic
09:26AM 47.3259 -172.4330 100° East 498 573 39,000  Level FlightAware Transoceanic
09:27AM 47.3027 -172.1935 101° East 508 585 39,000  Level FlightAware Transoceanic
09:28AM 47.2769 -171.9931 101° East 508 585 39,000  Level FlightAware Transoceanic
09:29AM 47.2508 -171.7928 101° East 508 585 39,000  Level FlightAware Transoceanic
09:30AM 47.2243 -171.5928 101° East 508 585 39,000  Level FlightAware Transoceanic
09:31AM 47.1975 -171.3930 101° East 508 585 39,000  Level FlightAware Transoceanic
09:32AM 47.1703 -171.1933 101° East 508 585 39,000  Level FlightAware Transoceanic
09:33AM 47.1428 -170.9939 102° East 508 585 39,000  Level FlightAware Transoceanic
09:34AM 47.1149 -170.7947 102° East 508 585 39,000  Level FlightAware Transoceanic
09:35AM 47.0867 -170.5957 102° East 508 585 39,000  Level FlightAware Transoceanic
09:35AM 47.0833 -170.5333 103° East 515 593 39,000  Level Oakland Oceanic (ODAPS)
09:36AM 47.0581 -170.3969 102° East 508 585 39,000  Level FlightAware Transoceanic
09:37AM 47.0292 -170.1984 102° East 508 585 39,000  Level FlightAware Transoceanic
09:37AM 47.0000 -170.0000 86° East 517 595 39,000  Level Oakland Oceanic (ODAPS)
09:38AM 47.0000 -170.0000 86° East 508 585 39,000  Level FlightAware Transoceanic
09:39AM 47.0093 -169.7832 86° East 508 585 39,000  Level FlightAware Transoceanic
09:40AM 47.0181 -169.5663 87° East 508 585 39,000  Level FlightAware Transoceanic
09:41AM 47.0265 -169.3493 87° East 515 593 39,000  Level FlightAware Transoceanic
09:42AM 47.0346 -169.1322 87° East 515 593 39,000  Level FlightAware Transoceanic
09:43AM 47.0422 -168.9151 87° East 515 593 39,000  Level FlightAware Transoceanic
09:44AM 47.0485 -168.7257 87° East 517 595 39,000  Level FlightAware Transoceanic
09:45AM 47.0552 -168.5131 87° East 517 595 39,000  Level FlightAware Transoceanic
09:46AM 47.0615 -168.3004 88° East 517 595 39,000  Level FlightAware Transoceanic
09:47AM 47.0674 -168.0877 88° East 517 595 39,000  Level FlightAware Transoceanic
09:48AM 47.0730 -167.8750 88° East 517 595 39,000  Level FlightAware Transoceanic
09:48AM 47.0833 -167.6333 88° East 529 609 39,000  Level Oakland Oceanic (ODAPS)
09:49AM 47.0781 -167.6622 88° East 517 595 39,000  Level FlightAware Transoceanic
09:50AM 47.0828 -167.4493 88° East 517 595 39,000  Level FlightAware Transoceanic
09:51AM 47.0872 -167.2365 88° East 517 595 39,000  Level FlightAware Transoceanic
09:52AM 47.0911 -167.0236 89° East 517 595 39,000  Level FlightAware Transoceanic
09:53AM 47.0947 -166.8107 89° East 517 595 39,000  Level FlightAware Transoceanic
09:54AM 47.0978 -166.5977 89° East 517 595 39,000  Level FlightAware Transoceanic
09:55AM 47.1051 -166.3242 89° East 529 609 39,000  Level FlightAware Transoceanic
09:56AM 47.1073 -166.1059 89° East 529 609 39,000  Level FlightAware Transoceanic
09:57AM 47.1091 -165.8876 89° East 529 609 39,000  Level FlightAware Transoceanic
09:58AM 47.1104 -165.6693 90° East 529 609 39,000  Level FlightAware Transoceanic
09:59AM 47.1113 -165.4510 90° East 529 609 39,000  Level FlightAware Transoceanic
10:00AM 47.1119 -165.2327 90° East 529 609 39,000  Level FlightAware Transoceanic
10:01AM 47.1119 -165.0144 90° East 529 609 39,000  Level FlightAware Transoceanic
10:02AM 47.1116 -164.7960 90° East 529 609 39,000  Level FlightAware Transoceanic
10:02AM 47.1167 -164.6500 90° East 530 610 39,000  Level Oakland Oceanic (ODAPS)
10:03AM 47.1109 -164.5777 90° East 529 609 39,000  Level FlightAware Transoceanic
10:04AM 47.1098 -164.3594 91° East 529 609 39,000  Level FlightAware Transoceanic
10:05AM 47.1082 -164.1411 91° East 529 609 39,000  Level FlightAware Transoceanic
10:06AM 47.1063 -163.9228 91° East 529 609 39,000  Level FlightAware Transoceanic
10:07AM 47.1039 -163.7045 91° East 529 609 39,000  Level FlightAware Transoceanic
10:08AM 47.1011 -163.4863 91° East 529 609 39,000  Level FlightAware Transoceanic
10:09AM 47.1026 -163.3196 91° East 530 610 39,000  Level FlightAware Transoceanic
10:10AM 47.0987 -163.0979 92° East 530 610 39,000  Level FlightAware Transoceanic
10:11AM 47.0944 -162.8763 92° East 530 610 39,000  Level FlightAware Transoceanic
10:12AM 47.0897 -162.6548 92° East 530 610 39,000  Level FlightAware Transoceanic
10:13AM 47.0846 -162.4332 92° East 530 610 39,000  Level FlightAware Transoceanic
10:14AM 47.0790 -162.2117 92° East 530 610 39,000  Level FlightAware Transoceanic
10:15AM 47.0731 -161.9903 92° East 530 610 39,000  Level FlightAware Transoceanic
10:16AM 47.0666 -161.7689 93° East 530 610 39,000  Level FlightAware Transoceanic
10:16AM 47.0667 -161.6667 93° East 539 620 39,000  Level Oakland Oceanic (ODAPS)
10:17AM 47.0598 -161.5475 93° East 530 610 39,000  Level FlightAware Transoceanic
10:18AM 47.0525 -161.3263 93° East 530 610 39,000  Level FlightAware Transoceanic
10:19AM 47.0448 -161.1050 93° East 530 610 39,000  Level FlightAware Transoceanic
10:20AM 47.0367 -160.8839 93° East 530 610 39,000  Level FlightAware Transoceanic
10:21AM 47.0282 -160.6628 93° East 530 610 39,000  Level FlightAware Transoceanic
10:22AM 47.0215 -160.4758 94° East 539 620 39,000  Level FlightAware Transoceanic
10:23AM 47.0110 -160.2378 94° East 539 620 39,000  Level FlightAware Transoceanic
10:24AM 47.0000 -160.0000 86° East 539 620 39,000  Level FlightAware Transoceanic
10:24AM 47.0000 -160.0000 86° East 554 638 39,000  Level Oakland Oceanic (ODAPS)
10:25AM 47.0097 -159.7733 87° East 539 620 39,000  Level FlightAware Transoceanic
10:26AM 47.0189 -159.5465 87° East 539 620 39,000  Level FlightAware Transoceanic
10:27AM 47.0277 -159.3197 87° East 539 620 39,000  Level FlightAware Transoceanic
10:28AM 47.0360 -159.0927 87° East 539 620 39,000  Level FlightAware Transoceanic
10:29AM 47.0439 -158.8658 87° East 539 620 39,000  Level FlightAware Transoceanic
10:30AM 47.0503 -158.6690 87° East 554 638 39,000  Level FlightAware Transoceanic
10:30AM 47.0500 -158.6000 87° East 549 632 39,000  Level Oakland Oceanic (ODAPS)
10:31AM 47.0572 -158.4469 87° East 554 638 39,000  Level FlightAware Transoceanic
10:32AM 47.0637 -158.2248 88° East 554 638 39,000  Level FlightAware Transoceanic
10:33AM 47.0697 -158.0026 88° East 554 638 39,000  Level FlightAware Transoceanic
10:34AM 47.0753 -157.7804 88° East 554 638 39,000  Level FlightAware Transoceanic
10:35AM 47.0804 -157.5581 88° East 554 638 39,000  Level FlightAware Transoceanic
10:36AM 47.0843 -157.2774 88° East 549 632 39,000  Level FlightAware Transoceanic
10:37AM 47.0885 -157.0569 88° East 549 632 39,000  Level FlightAware Transoceanic
10:38AM 47.0923 -156.8362 89° East 549 632 39,000  Level FlightAware Transoceanic
10:39AM 47.0956 -156.6156 89° East 549 632 39,000  Level FlightAware Transoceanic
10:40AM 47.0986 -156.3949 89° East 549 632 39,000  Level FlightAware Transoceanic
10:41AM 47.1011 -156.1743 89° East 549 632 39,000  Level FlightAware Transoceanic
10:42AM 47.1032 -155.9536 89° East 549 632 39,000  Level FlightAware Transoceanic
10:43AM 47.1049 -155.7328 89° East 549 632 39,000  Level FlightAware Transoceanic
10:44AM 47.1062 -155.5121 90° East 549 632 39,000  Level FlightAware Transoceanic
10:44AM 47.1000 -155.5000 90° East 561 646 39,000  Level Oakland Oceanic (ODAPS)
10:45AM 47.1070 -155.2913 90° East 549 632 39,000  Level FlightAware Transoceanic
10:46AM 47.1074 -155.0706 90° East 549 632 39,000  Level FlightAware Transoceanic
10:47AM 47.1074 -154.8498 90° East 549 632 39,000  Level FlightAware Transoceanic
10:48AM 47.1070 -154.6291 90° East 549 632 39,000  Level FlightAware Transoceanic
10:49AM 47.1061 -154.4084 90° East 549 632 39,000  Level FlightAware Transoceanic
10:50AM 47.0997 -154.1235 91° East 561 646 39,000  Level FlightAware Transoceanic
10:51AM 47.0980 -153.8941 91° East 561 646 39,000  Level FlightAware Transoceanic
10:52AM 47.0959 -153.6647 91° East 561 646 39,000  Level FlightAware Transoceanic
10:53AM 47.0934 -153.4353 91° East 561 646 39,000  Level FlightAware Transoceanic
10:54AM 47.0904 -153.2060 91° East 561 646 39,000  Level FlightAware Transoceanic
10:55AM 47.0869 -152.9767 91° East 561 646 39,000  Level FlightAware Transoceanic
10:56AM 47.0829 -152.7474 92° East 561 646 39,000  Level FlightAware Transoceanic
10:57AM 47.0785 -152.5182 92° East 561 646 39,000  Level FlightAware Transoceanic
10:58AM 47.0737 -152.2890 92° East 561 646 39,000  Level FlightAware Transoceanic
10:58AM 47.0833 -152.3500 92° East 551 634 39,000  Level Oakland Oceanic (ODAPS)
10:59AM 47.0684 -152.0598 92° East 561 646 39,000  Level FlightAware Transoceanic
11:00AM 47.0626 -151.8307 92° East 561 646 39,000  Level FlightAware Transoceanic
11:01AM 47.0564 -151.6017 92° East 561 646 39,000  Level FlightAware Transoceanic
11:02AM 47.0497 -151.3726 93° East 561 646 39,000  Level FlightAware Transoceanic
11:03AM 47.0425 -151.1437 93° East 561 646 39,000  Level FlightAware Transoceanic
11:04AM 47.0438 -151.0673 93° East 551 634 39,000  Level FlightAware Transoceanic
11:05AM 47.0359 -150.8537 93° East 551 634 39,000  Level FlightAware Transoceanic
11:06AM 47.0275 -150.6402 93° East 551 634 39,000  Level FlightAware Transoceanic
11:07AM 47.0187 -150.4267 94° East 551 634 39,000  Level FlightAware Transoceanic
11:08AM 47.0096 -150.2133 94° East 551 634 39,000  Level FlightAware Transoceanic
11:08AM 47.0000 -150.0000 95° East 541 623 39,000  Level Oakland Oceanic (ODAPS)
11:09AM 47.0000 -150.0000 95° East 551 634 39,000  Level FlightAware Transoceanic
11:10AM 46.9874 -149.7743 95° East 551 634 39,000  Level FlightAware Transoceanic
11:11AM 46.9743 -149.5487 95° East 551 634 39,000  Level FlightAware Transoceanic
11:12AM 46.9607 -149.3232 95° East 551 634 39,000  Level FlightAware Transoceanic
11:12AM 46.9500 -149.2667 95° East 540 621 39,000  Level Oakland Oceanic (ODAPS)
11:13AM 46.9468 -149.0979 95° East 551 634 39,000  Level FlightAware Transoceanic
11:14AM 46.9323 -148.8726 95° East 551 634 39,000  Level FlightAware Transoceanic
11:15AM 46.9194 -148.6769 96° East 541 623 39,000  Level FlightAware Transoceanic
11:16AM 46.9045 -148.4567 96° East 541 623 39,000  Level FlightAware Transoceanic
11:17AM 46.8892 -148.2367 96° East 541 623 39,000  Level FlightAware Transoceanic
11:18AM 46.8735 -148.0169 96° East 541 623 39,000  Level FlightAware Transoceanic
11:19AM 46.8468 -147.7379 96° East 540 621 39,000  Level FlightAware Transoceanic
11:20AM 46.8304 -147.5200 96° East 540 621 39,000  Level FlightAware Transoceanic
11:21AM 46.8135 -147.3022 97° East 540 621 39,000  Level FlightAware Transoceanic
11:22AM 46.7963 -147.0846 97° East 540 621 39,000  Level FlightAware Transoceanic
11:23AM 46.7787 -146.8671 97° East 540 621 39,000  Level FlightAware Transoceanic
11:24AM 46.7606 -146.6498 97° East 540 621 39,000  Level FlightAware Transoceanic
11:25AM 46.7421 -146.4326 97° East 540 621 39,000  Level FlightAware Transoceanic
11:26AM 46.7233 -146.2155 97° East 540 621 39,000  Level FlightAware Transoceanic
11:26AM 46.7333 -146.2833 97° East 534 615 39,000  Level Oakland Oceanic (ODAPS)
11:27AM 46.7040 -145.9986 97° East 540 621 39,000  Level FlightAware Transoceanic
11:28AM 46.6843 -145.7819 98° East 540 621 39,000  Level FlightAware Transoceanic
11:29AM 46.6642 -145.5653 98° East 540 621 39,000  Level FlightAware Transoceanic
11:30AM 46.6436 -145.3489 98° East 540 621 39,000  Level FlightAware Transoceanic
11:31AM 46.6227 -145.1327 98° East 540 621 39,000  Level FlightAware Transoceanic
11:32AM 46.6143 -145.0137 98° East 534 615 39,000  Level FlightAware Transoceanic
11:33AM 46.5932 -144.8027 98° East 534 615 39,000  Level FlightAware Transoceanic
11:34AM 46.5716 -144.5918 99° East 534 615 39,000  Level FlightAware Transoceanic
11:35AM 46.5496 -144.3811 99° East 534 615 39,000  Level FlightAware Transoceanic
11:36AM 46.5272 -144.1706 99° East 534 615 39,000  Level FlightAware Transoceanic
11:37AM 46.5045 -143.9602 99° East 534 615 39,000  Level FlightAware Transoceanic
11:38AM 46.4814 -143.7500 99° East 534 615 39,000  Level FlightAware Transoceanic
11:39AM 46.4579 -143.5400 99° East 534 615 39,000 480 Level FlightAware Transoceanic
11:39AM 46.4500 -143.4000 100° East 524 603 40,000  Climbing Oakland Oceanic (ODAPS)
11:40AM 46.4340 -143.3302 99° East 534 615 39,000 -960 Descending FlightAware Transoceanic
11:41AM 46.4097 -143.1206 100° East 534 615 39,000  Level FlightAware Transoceanic
11:42AM 46.3850 -142.9111 100° East 534 615 39,000  Level FlightAware Transoceanic
11:43AM 46.3600 -142.7018 100° East 534 615 39,000  Level FlightAware Transoceanic
11:44AM 46.3346 -142.4928 100° East 534 615 39,000  Level FlightAware Transoceanic
11:45AM 46.3088 -142.2839 100° East 534 615 39,000 480 Level FlightAware Transoceanic
11:46AM 46.2931 -142.1185 101° East 524 603 40,000 480 Climbing FlightAware Transoceanic
11:47AM 46.2655 -141.9057 101° East 524 603 40,000  Level FlightAware Transoceanic
11:48AM 46.2376 -141.6930 101° East 524 603 40,000  Level FlightAware Transoceanic
11:49AM 46.2093 -141.4806 101° East 524 603 40,000  Level FlightAware Transoceanic
11:50AM 46.1805 -141.2684 101° East 524 603 40,000  Level FlightAware Transoceanic
11:51AM 46.1514 -141.0564 101° East 524 603 40,000  Level FlightAware Transoceanic
11:52AM 46.1219 -140.8447 101° East 524 603 40,000  Level FlightAware Transoceanic
11:53AM 46.0920 -140.6332 102° East 524 603 40,000  Level FlightAware Transoceanic
11:53AM 46.0833 -140.5500 102° East 529 609 40,000  Level Oakland Oceanic (ODAPS)
11:54AM 46.0617 -140.4219 102° East 524 603 40,000  Level FlightAware Transoceanic
11:55AM 46.0311 -140.2108 102° East 524 603 40,000  Level FlightAware Transoceanic
11:56AM 46.0000 -140.0000 109° East 524 603 40,000  Level FlightAware Transoceanic
11:56AM 46.0000 -140.0000 109° East 529 609 40,000  Level Oakland Oceanic (ODAPS)
11:57AM 45.9508 -139.7981 109° East 524 603 40,000  Level FlightAware Transoceanic
11:58AM 45.9013 -139.5966 110° East 524 603 40,000  Level FlightAware Transoceanic
11:59AM 45.8514 -139.3955 110° East 524 603 40,000  Level FlightAware Transoceanic
12:00PM 45.8011 -139.1947 110° East 529 609 40,000  Level FlightAware Transoceanic
12:01PM 45.7505 -138.9942 110° East 529 609 40,000  Level FlightAware Transoceanic
12:02PM 45.7054 -138.8168 110° East 529 609 40,000  Level FlightAware Transoceanic
12:03PM 45.6551 -138.6208 110° East 529 609 40,000  Level FlightAware Transoceanic
12:04PM 45.6045 -138.4252 110° East 529 609 40,000  Level FlightAware Transoceanic
12:05PM 45.5535 -138.2299 111° Southeast 529 609 40,000  Level FlightAware Transoceanic
12:06PM 45.5022 -138.0350 111° Southeast 529 609 40,000  Level FlightAware Transoceanic
12:07PM 45.4506 -137.8405 111° Southeast 529 609 40,000  Level FlightAware Transoceanic
12:07PM 45.4500 -137.8333 111° Southeast 523 602 40,000  Level Oakland Oceanic (ODAPS)
12:08PM 45.3987 -137.6463 111° Southeast 529 609 40,000  Level FlightAware Transoceanic
12:09PM 45.3464 -137.4524 111° Southeast 529 609 40,000  Level FlightAware Transoceanic
12:10PM 45.2938 -137.2589 111° Southeast 529 609 40,000  Level FlightAware Transoceanic
12:11PM 45.2409 -137.0658 111° Southeast 529 609 40,000  Level FlightAware Transoceanic
12:12PM 45.1876 -136.8731 111° Southeast 529 609 40,000  Level FlightAware Transoceanic
12:13PM 45.1340 -136.6806 112° Southeast 529 609 40,000  Level FlightAware Transoceanic
12:14PM 45.0883 -136.5139 112° Southeast 523 602 40,000  Level FlightAware Transoceanic
12:15PM 45.0354 -136.3268 112° Southeast 523 602 40,000  Level FlightAware Transoceanic
12:16PM 44.9822 -136.1401 112° Southeast 523 602 40,000  Level FlightAware Transoceanic
12:17PM 44.9287 -135.9536 112° Southeast 523 602 40,000  Level FlightAware Transoceanic
12:18PM 44.8749 -135.7676 112° Southeast 523 602 40,000  Level FlightAware Transoceanic
12:19PM 44.8208 -135.5818 112° Southeast 523 602 40,000  Level FlightAware Transoceanic
12:20PM 44.7664 -135.3965 113° Southeast 523 602 40,000  Level FlightAware Transoceanic
12:21PM 44.7117 -135.2115 113° Southeast 523 602 40,000  Level FlightAware Transoceanic
12:21PM 44.7167 -135.2167 113° Southeast 524 603 40,000  Level Oakland Oceanic (ODAPS)
12:22PM 44.6567 -135.0268 113° Southeast 523 602 40,000  Level FlightAware Transoceanic
12:23PM 44.6014 -134.8425 113° Southeast 523 602 40,000  Level FlightAware Transoceanic
12:24PM 44.5458 -134.6585 113° Southeast 523 602 40,000  Level FlightAware Transoceanic
12:25PM 44.4899 -134.4749 113° Southeast 523 602 40,000  Level FlightAware Transoceanic
12:26PM 44.4337 -134.2916 113° Southeast 523 602 40,000  Level FlightAware Transoceanic
12:27PM 44.3812 -134.1127 113° Southeast 524 603 40,000  Level FlightAware Transoceanic
12:28PM 44.3242 -133.9300 114° Southeast 524 603 40,000  Level FlightAware Transoceanic
12:29PM 44.2670 -133.7476 114° Southeast 524 603 40,000  Level FlightAware Transoceanic
12:30PM 44.2095 -133.5656 114° Southeast 524 603 40,000  Level FlightAware Transoceanic
12:31PM 44.1517 -133.3839 114° Southeast 524 603 40,000  Level FlightAware Transoceanic
12:32PM 44.0936 -133.2026 114° Southeast 524 603 40,000  Level FlightAware Transoceanic
12:33PM 44.0352 -133.0216 114° Southeast 524 603 40,000  Level FlightAware Transoceanic
12:34PM 43.9765 -132.8410 114° Southeast 524 603 40,000  Level FlightAware Transoceanic
12:35PM 43.9176 -132.6608 114° Southeast 524 603 40,000  Level FlightAware Transoceanic
12:35PM 43.9000 -132.6333 114° Southeast 525 604 40,000  Level Oakland Oceanic (ODAPS)
12:36PM 43.8583 -132.4809 115° Southeast 524 603 40,000  Level FlightAware Transoceanic
12:37PM 43.7988 -132.3013 115° Southeast 524 603 40,000  Level FlightAware Transoceanic
12:38PM 43.7390 -132.1221 115° Southeast 524 603 40,000  Level FlightAware Transoceanic
12:39PM 43.6790 -131.9433 115° Southeast 524 603 40,000  Level FlightAware Transoceanic
12:40PM 43.6186 -131.7649 115° Southeast 524 603 40,000  Level FlightAware Transoceanic
12:41PM 43.5473 -131.5706 115° Southeast 525 604 40,000  Level FlightAware Transoceanic
12:42PM 43.4875 -131.3947 115° Southeast 525 604 40,000  Level FlightAware Transoceanic
12:43PM 43.4275 -131.2191 115° Southeast 525 604 40,000  Level FlightAware Transoceanic
12:44PM 43.3672 -131.0439 115° Southeast 525 604 40,000  Level FlightAware Transoceanic
12:45PM 43.3067 -130.8691 116° Southeast 525 604 40,000  Level FlightAware Transoceanic
12:46PM 43.2459 -130.6945 116° Southeast 525 604 40,000  Level FlightAware Transoceanic
12:47PM 43.1848 -130.5204 116° Southeast 525 604 40,000  Level FlightAware Transoceanic
12:48PM 43.1235 -130.3466 116° Southeast 525 604 40,000  Level FlightAware Transoceanic
12:49PM 43.0619 -130.1731 116° Southeast 525 604 40,000  Level FlightAware Transoceanic
12:49PM 43.0500 -130.1333 117° Southeast 527 606 40,000  Level Oakland Oceanic (ODAPS)
12:50PM 43.0000 -130.0000 116° Southeast 525 604 40,000  Level FlightAware Transoceanic
12:50PM 43.0000 -130.0000 116° Southeast 523 602 40,000  Level Oakland Oceanic (ODAPS)
12:51PM 42.9309 -129.8103 117° Southeast 525 604 40,000  Level FlightAware Transoceanic
12:52PM 42.8614 -129.6211 117° Southeast 525 604 40,000  Level FlightAware Transoceanic
12:53PM 42.7917 -129.4322 117° Southeast 525 604 40,000  Level FlightAware Transoceanic
12:54PM 42.7216 -129.2439 117° Southeast 525 604 40,000  Level FlightAware Transoceanic
12:55PM 42.6512 -129.0559 117° Southeast 527 606 40,000  Level FlightAware Transoceanic
12:56PM 42.6042 -128.9308 117° Southeast 523 602 40,000  Level FlightAware Transoceanic
12:57PM 42.5372 -128.7539 117° Southeast 523 602 40,000  Level FlightAware Transoceanic
12:58PM 42.4700 -128.5774 117° Southeast 523 602 40,000  Level FlightAware Transoceanic
12:59PM 42.4026 -128.4013 117° Southeast 523 602 40,000  Level FlightAware Transoceanic
01:00PM 42.3348 -128.2256 118° Southeast 523 602 40,000  Level FlightAware Transoceanic
01:01PM 42.2668 -128.0502 118° Southeast 523 602 40,000  Level FlightAware Transoceanic
01:02PM 42.1985 -127.8753 118° Southeast 523 602 40,000  Level FlightAware Transoceanic
01:03PM 42.1300 -127.7007 118° Southeast 523 602 40,000  Level FlightAware Transoceanic
01:03PM 42.1333 -127.7000 118° Southeast 528 608 40,000  Level Oakland Oceanic (ODAPS)
01:04PM 42.0612 -127.5264 118° Southeast 523 602 40,000  Level FlightAware Transoceanic
01:05PM 41.9921 -127.3526 118° Southeast 523 602 40,000  Level FlightAware Transoceanic
01:06PM 41.9228 -127.1791 118° Southeast 523 602 40,000  Level FlightAware Transoceanic
01:07PM 41.8532 -127.0060 118° Southeast 523 602 40,000 -120 Level FlightAware Transoceanic
01:07PM 41.8306 -127.0242 134° Southeast 532 612 39,900  Descending Seattle Center
01:08PM 41.7833 -126.8333 134° Southeast 523 602 40,000  Climbing FlightAware Transoceanic
01:08PM 41.7575 -126.8522 120° Southeast 532 612 39,900  Descending Seattle Center
01:09PM 41.6762 -126.6850 134° Southeast 528 608 40,000  Climbing FlightAware Transoceanic
01:09PM 41.6314 -126.6786 134° Southeast 546 628 39,900  Descending Seattle Center
01:10PM 41.5688 -126.5371 134° Southeast 528 608 40,000 60 Climbing FlightAware Transoceanic
01:10PM 41.5500 -126.5597 132° Southeast 539 620 40,000  Level Oakland Center
01:11PM 41.4613 -126.3898 134° Southeast 528 608 40,000  Level FlightAware Transoceanic
01:11PM 41.4442 -126.4183 135° Southeast 542 624 40,000  Level Oakland Center
01:12PM 41.3535 -126.2429 134° Southeast 528 608 40,000 -120 Level FlightAware Transoceanic
01:12PM 41.3161 -126.2472 135° Southeast 543 625 39,900  Descending Seattle Center
01:13PM 41.2125 -126.1064 134° Southeast 536 617 40,000  Climbing Seattle Center
01:14PM 41.1086 -125.9642 134° Southeast 537 618 39,900 -60 Descending Seattle Center
01:15PM 41.0039 -125.8228 134° Southeast 539 620 39,900  Level Seattle Center
01:16PM 40.8961 -125.6825 135° Southeast 542 624 40,000  Climbing Seattle Center
01:21PM 40.2960 -124.8970 135° Southeast 536 617 40,000  Level FlightAware
01:22PM 40.2320 -124.8150 136° Southeast 535 616 40,000  Level FlightAware
01:23PM 40.1680 -124.7330 136° Southeast 537 618 40,000  Level FlightAware
01:23PM 40.1110 -124.6590 135° Southeast 538 619 40,000  Level FlightAware
01:24PM 40.0480 -124.5790 136° Southeast 538 619 40,000  Level FlightAware
01:24PM 39.9850 -124.4980 135° Southeast 538 619 40,000  Level FlightAware
01:25PM 39.9240 -124.4200 136° Southeast 539 620 40,000  Level FlightAware
01:25PM 39.8550 -124.3330 136° Southeast 538 619 40,000  Level FlightAware
01:26PM 39.7980 -124.2610 136° Southeast 539 620 40,000  Level FlightAware
01:27PM 39.7330 -124.1850 138° Southeast 540 621 40,000  Level FlightAware
01:27PM 39.6730 -124.1200 140° Southeast 540 621 40,000 240 Level FlightAware
01:28PM 39.6060 -124.0460 140° Southeast 542 624 40,300 720 Climbing FlightAware
01:28PM 39.5330 -123.9670 140° Southeast 542 624 40,900 540 Climbing FlightAware
01:29PM 39.4680 -123.8960 140° Southeast 537 618 41,000 60 Climbing FlightAware
01:29PM 39.4050 -123.8270 140° Southeast 534 615 41,000  Level FlightAware
01:30PM 39.3310 -123.7470 140° Southeast 532 612 41,000  Level FlightAware
01:31PM 39.2730 -123.6830 139° Southeast 533 613 41,000  Level FlightAware
01:31PM 39.2010 -123.6060 140° Southeast 534 615 41,000  Level FlightAware
01:32PM 39.1320 -123.5320 140° Southeast 533 613 41,000  Level FlightAware
01:32PM 39.0750 -123.4700 140° Southeast 533 613 41,000  Level FlightAware
01:33PM 39.0060 -123.3970 141° Southeast 535 616 41,000  Level FlightAware
01:34PM 38.9320 -123.3180 140° Southeast 537 618 41,000  Level FlightAware
01:34PM 38.8730 -123.2540 140° Southeast 537 618 41,000  Level FlightAware
01:35PM 38.8100 -123.1860 140° Southeast 535 616 41,000  Level FlightAware
01:35PM 38.7320 -123.1030 140° Southeast 535 616 41,000  Level FlightAware
01:36PM 38.6720 -123.0380 140° Southeast 534 615 41,000  Level FlightAware
01:36PM 38.6030 -122.9650 140° Southeast 535 616 41,000  Level FlightAware
01:37PM 38.5350 -122.8920 140° Southeast 535 616 41,000  Level FlightAware
01:38PM 38.4690 -122.8220 140° Southeast 533 613 41,000  Level FlightAware
01:38PM 38.4090 -122.7590 141° Southeast 533 613 41,000  Level FlightAware
01:39PM 38.3410 -122.6870 140° Southeast 533 613 41,000  Level FlightAware
01:39PM 38.2770 -122.6200 141° Southeast 532 612 41,000  Level FlightAware
01:40PM 38.2030 -122.5420 140° Southeast 531 611 41,000  Level FlightAware
01:41PM 38.1370 -122.4720 140° Southeast 531 611 41,000  Level FlightAware
01:41PM 38.0650 -122.3980 141° Southeast 530 610 41,000  Level FlightAware
01:42PM 37.9900 -122.3200 141° Southeast 528 608 41,000  Level FlightAware
01:42PM 37.9300 -122.2570 140° Southeast 527 606 41,000  Level FlightAware
01:43PM 37.8620 -122.1870 141° Southeast 527 606 41,000  Level FlightAware
01:44PM 37.7996 -122.1220 141° Southeast 528 608 41,000  Level FlightAware ADS-B
01:44PM 37.7191 -122.0390 141° Southeast 528 608 41,000  Level FlightAware ADS-B
01:45PM 37.6660 -121.9840 141° Southeast 527 606 41,000  Level FlightAware
01:45PM 37.6467 -121.9640 141° Southeast 527 606 41,000  Level FlightAware ADS-B
01:45PM 37.5886 -121.9050 141° Southeast 525 604 41,000  Level FlightAware ADS-B
01:46PM 37.5310 -121.8460 141° Southeast 525 604 41,000  Level FlightAware ADS-B
01:46PM 37.4738 -121.7870 141° Southeast 525 604 41,000  Level FlightAware ADS-B
01:47PM 37.4155 -121.7270 141° Southeast 525 604 41,000  Level FlightAware ADS-B
01:48PM 37.3336 -121.6440 141° Southeast 526 605 41,000  Level FlightAware ADS-B
01:48PM 37.2749 -121.5840 141° Southeast 528 608 41,000  Level FlightAware ADS-B
01:49PM 37.2152 -121.5240 141° Southeast 529 609 41,000  Level FlightAware ADS-B
01:49PM 37.1505 -121.4590 141° Southeast 529 609 41,000  Level FlightAware ADS-B
01:50PM 37.0800 -121.3870 141° Southeast 525 604 41,000  Level FlightAware
01:51PM 37.0110 -121.3190 142° Southeast 524 603 41,000  Level FlightAware
01:51PM 36.9440 -121.2510 141° Southeast 522 601 41,000  Level FlightAware
01:52PM 36.8760 -121.1830 141° Southeast 521 600 41,000  Level FlightAware
01:52PM 36.8170 -121.1240 141° Southeast 519 597 41,000  Level FlightAware
01:53PM 36.7490 -121.0560 141° Southeast 520 598 41,000  Level FlightAware
01:53PM 36.6765 -120.9840 141° Southeast 522 601 41,000  Level FlightAware ADS-B
01:54PM 36.6136 -120.9210 141° Southeast 522 601 41,000  Level FlightAware ADS-B
01:55PM 36.5530 -120.8620 142° Southeast 520 598 41,000  Level FlightAware
01:55PM 36.4938 -120.8030 141° Southeast 521 600 41,000  Level FlightAware ADS-B
01:56PM 36.4350 -120.7450 142° Southeast 522 601 41,000  Level FlightAware ADS-B
01:56PM 36.3571 -120.6680 141° Southeast 522 601 41,000  Level FlightAware ADS-B
01:57PM 36.2970 -120.6090 142° Southeast 520 598 41,000 -360 Level FlightAware ADS-B
01:58PM 36.2220 -120.5360 142° Southeast 512 589 40,600 -1,020 Descending FlightAware
01:58PM 36.1922 -120.5070 142° Southeast 520 598 40,100 -2,220 Descending FlightAware ADS-B
01:59PM 36.0870 -120.4040 142° Southeast 517 595 38,000 -2,100 Descending FlightAware
01:59PM 36.0354 -120.3540 142° Southeast 515 593 37,200 -1,560 Descending FlightAware ADS-B
02:00PM 35.9784 -120.2980 142° Southeast 511 588 36,500 -1,440 Descending FlightAware ADS-B
02:00PM 35.8990 -120.2210 142° Southeast 504 580 35,400 -1,140 Descending FlightAware
02:01PM 35.8320 -120.1560 142° Southeast 490 564 35,000 -360 Descending FlightAware
02:02PM 35.7710 -120.0980 142° Southeast 481 554 35,000  Level FlightAware
02:02PM 35.7100 -120.0390 142° Southeast 482 555 35,000  Level FlightAware
02:03PM 35.6450 -119.9770 142° Southeast 483 556 35,000 -120 Level FlightAware
02:03PM 35.5840 -119.9220 144° Southeast 489 563 34,900 -1,140 Descending FlightAware
02:04PM 35.5160 -119.8650 146° Southeast 487 560 33,700 -2,700 Descending FlightAware
02:04PM 35.4650 -119.8210 145° Southeast 498 573 32,100 -2,100 Descending FlightAware
02:05PM 35.3740 -119.7440 145° Southeast 494 568 31,000 -840 Descending FlightAware
02:06PM 35.3200 -119.6970 145° Southeast 490 564 31,000 -900 Level FlightAware
02:06PM 35.2390 -119.6280 145° Southeast 503 579 30,000 -2,040 Descending FlightAware
02:07PM 35.1700 -119.5680 145° Southeast 508 585 28,500 -1,860 Descending FlightAware
02:08PM 35.1070 -119.5150 145° Southeast 500 575 27,900 -1,440 Descending FlightAware
02:08PM 35.0360 -119.4530 144° Southeast 489 563 26,800 -1,860 Descending FlightAware
02:09PM 34.9870 -119.4120 146° Southeast 484 557 25,900 -1,860 Descending FlightAware
02:09PM 34.9180 -119.3540 145° Southeast 474 545 24,800 -1,740 Descending FlightAware
02:10PM 34.8620 -119.3060 145° Southeast 471 542 23,900 -1,800 Descending FlightAware
02:10PM 34.7940 -119.2480 145° Southeast 456 525 22,700 -1,860 Descending FlightAware
02:11PM 34.7280 -119.1920 145° Southeast 454 522 21,500 -1,920 Descending FlightAware
02:12PM 34.6660 -119.1410 146° Southeast 446 513 20,400 -1,980 Descending FlightAware
02:12PM 34.6060 -119.0900 145° Southeast 437 503 19,300 -1,920 Descending FlightAware
02:13PM 34.5490 -119.0430 146° Southeast 430 495 18,200 -1,860 Descending FlightAware
02:13PM 34.4990 -119.0000 145° Southeast 420 483 17,200 -1,860 Descending FlightAware
02:14PM 34.4390 -118.9500 145° Southeast 420 483 16,100 -1,860 Descending FlightAware
02:15PM 34.3790 -118.9000 145° Southeast 415 478 15,000 -1,860 Descending FlightAware
02:15PM 34.3340 -118.8740 154° Southeast 403 464 14,200 -1,860 Descending FlightAware
02:16PM 34.2770 -118.8520 162° South 397 457 13,200 -1,740 Descending FlightAware
02:16PM 34.2140 -118.8290 163° South 383 441 12,200 -1,200 Descending FlightAware
02:17PM 34.1540 -118.8070 163° South 358 412 11,800 -780 Descending FlightAware
02:17PM 34.0960 -118.7860 163° South 342 394 11,300 -900 Descending FlightAware
02:18PM 34.0700 -118.7750 161° South 340 391 11,000 -1,080 Descending FlightAware
02:18PM 34.0580 -118.7660 148° Southeast 341 392 10,800 -1,320 Descending FlightAware
02:18PM 34.0450 -118.7500 134° Southeast 337 388 10,600 -960 Descending FlightAware
02:18PM 34.0330 -118.7260 121° Southeast 331 381 10,400 -840 Descending FlightAware
02:19PM 34.0280 -118.7030 105° East 319 367 10,200 -1,080 Descending FlightAware
02:19PM 34.0250 -118.6650 95° East 314 361 9,800 -1,200 Descending FlightAware
02:19PM 34.0230 -118.6300 94° East 314 361 9,400 -1,260 Descending FlightAware
02:20PM 34.0200 -118.5890 95° East 312 359 8,900 -1,260 Descending FlightAware
02:20PM 34.0170 -118.5550 96° East 307 353 8,500 -900 Descending FlightAware
02:20PM 34.0150 -118.5210 94° East 287 330 8,300 -660 Descending FlightAware
02:21PM 34.0130 -118.4930 95° East 272 313 8,100 -960 Descending FlightAware
02:21PM 34.0120 -118.4620 92° East 259 298 7,700 -1,260 Descending FlightAware
02:21PM 34.0140 -118.4330 85° East 252 290 7,200 -1,680 Descending FlightAware
02:22PM 34.0170 -118.4050 83° East 253 291 6,600 -1,560 Descending FlightAware
02:22PM 34.0220 -118.3640 82° East 240 276 5,900 -1,320 Descending FlightAware
02:22PM 34.0260 -118.3380 79° East 232 267 5,500 -1,800 Descending FlightAware
02:23PM 34.0290 -118.3120 82° East 234 269 4,700 -2,100 Descending FlightAware
02:23PM 34.0340 -118.2770 80° East 223 257 3,800 -1,800 Descending FlightAware
02:24PM 34.0400 -118.2400 79° East 220 253 2,900 -1,440 Descending FlightAware
02:24PM 34.0440 -118.2170 78° East 222 255 2,600 -480 Descending FlightAware
02:24PM 34.0480 -118.1920 79° East 224 258 2,600  Level FlightAware
02:25PM 34.0540 -118.1640 75° East 225 259 2,600  Level FlightAware
02:25PM 34.0550 -118.1530 84° East 224 258 2,600  Level FlightAware
02:25PM 34.0460 -118.1260 112° Southeast 222 255 2,600  Level FlightAware
02:26PM 34.0360 -118.1200 154° Southeast 222 255 2,600  Level FlightAware
02:26PM 34.0290 -118.1180 167° South 223 257 2,600  Level FlightAware
02:26PM 34.0160 -118.1150 169° South 222 255 2,600  Level FlightAware
02:26PM 33.9820 -118.1260 195° South 215 247 2,600  Level FlightAware
02:27PM 33.9790 -118.1330 243° Southwest 215 247 2,600  Level FlightAware
02:27PM 33.9770 -118.1500 262° West 207 238 2,600  Level FlightAware
02:27PM 33.9760 -118.1670 266° West 194 223 2,600  Level FlightAware
02:28PM 33.9730 -118.1940 262° West 187 215 2,600  Level FlightAware
02:28PM 33.9720 -118.2100 266° West 183 211 2,600  Level FlightAware
02:28PM 33.9690 -118.2350 262° West 191 220 2,600 -180 Level FlightAware
02:29PM 33.9670 -118.2580 264° West 170 196 2,500 -600 Descending FlightAware
02:29PM 33.9650 -118.2750 262° West 162 186 2,200 -960 Descending FlightAware
02:29PM 33.9630 -118.2920 262° West 151 174 1,900 -780 Descending FlightAware
02:30PM 33.9620 -118.3060 265° West 147 169 1,700 -720 Descending FlightAware
02:30PM 33.9600 -118.3260 263° West 144 166 1,400 -840 Descending FlightAware
02:30PM 33.9580 -118.3430 262° West 145 167 1,100 -420 Descending FlightAware
02:31PM 33.9560 -118.3610 262° West 145 167 1,100 -600 Level FlightAware
02:31PM 33.9560 -118.3680 270° West 137 158 700 -1,140 Descending FlightAware
02:31PM 33.9540 -118.3830 261° West 137 158 500 -600 Descending FlightAware
02:32PM 33.9530 -118.3950 264° West 136 157 300 -360 Descending FlightAware
02:32PM 33.9500 -118.4200 262° West 135 155 200 -180 Descending FlightAware